sensor_id;sensor_type;location;lat;lon;timestamp;noise_LAeq;noise_LA_min;noise_LA_max;noise_LA01;noise_LA95
76382;Laerm;65202;52.520;10.528;2023-04-12T00:00:17;36.60;31.17;47.53;;
76382;Laerm;65202;52.520;10.528;2023-04-12T00:02:45;36.80;31.20;47.55;;
76382;Laerm;65202;52.520;10.528;2023-04-12T00:05:12;38.45;31.07;50.30;;
76382;Laerm;65202;52.520;10.528;2023-04-12T00:07:40;36.27;30.99;46.88;;
76382;Laerm;65202;52.520;10.528;2023-04-12T00:10:08;36.93;31.02;46.89;;
76382;Laerm;65202;52.520;10.528;2023-04-12T00:12:36;36.59;31.03;46.47;;
76382;Laerm;65202;52.520;10.528;2023-04-12T00:15:03;38.35;31.15;48.89;;
76382;Laerm;65202;52.520;10.528;2023-04-12T00:17:34;38.45;31.34;48.88;;
76382;Laerm;65202;52.520;10.528;2023-04-12T00:20:02;36.34;31.20;46.71;;
76382;Laerm;65202;52.520;10.528;2023-04-12T00:22:31;37.35;31.42;47.11;;
76382;Laerm;65202;52.520;10.528;2023-04-12T00:24:58;37.79;30.95;48.38;;
76382;Laerm;65202;52.520;10.528;2023-04-12T00:27:26;40.45;31.56;53.88;;
76382;Laerm;65202;52.520;10.528;2023-04-12T00:29:53;37.36;31.34;46.92;;
76382;Laerm;65202;52.520;10.528;2023-04-12T00:32:20;36.25;30.95;46.78;;
76382;Laerm;65202;52.520;10.528;2023-04-12T00:34:47;36.10;31.39;45.64;;
76382;Laerm;65202;52.520;10.528;2023-04-12T00:37:14;35.98;31.07;46.06;;
76382;Laerm;65202;52.520;10.528;2023-04-12T00:39:42;37.04;31.29;46.49;;
76382;Laerm;65202;52.520;10.528;2023-04-12T00:42:09;38.39;31.47;46.34;;
76382;Laerm;65202;52.520;10.528;2023-04-12T00:44:36;39.81;32.33;50.69;;
76382;Laerm;65202;52.520;10.528;2023-04-12T00:47:04;37.43;31.77;46.47;;
76382;Laerm;65202;52.520;10.528;2023-04-12T00:49:33;37.82;31.48;45.38;;
76382;Laerm;65202;52.520;10.528;2023-04-12T00:52:05;37.96;31.35;48.29;;
76382;Laerm;65202;52.520;10.528;2023-04-12T00:54:33;36.50;31.30;45.85;;
76382;Laerm;65202;52.520;10.528;2023-04-12T00:57:02;36.02;31.44;45.49;;
76382;Laerm;65202;52.520;10.528;2023-04-12T00:59:29;38.28;31.41;45.54;;
76382;Laerm;65202;52.520;10.528;2023-04-12T01:01:58;36.91;31.86;45.62;;
76382;Laerm;65202;52.520;10.528;2023-04-12T01:04:27;38.71;32.76;45.50;;
76382;Laerm;65202;52.520;10.528;2023-04-12T01:10:38;37.78;31.44;45.68;;
76382;Laerm;65202;52.520;10.528;2023-04-12T01:16:04;36.35;31.04;45.63;;
76382;Laerm;65202;52.520;10.528;2023-04-12T01:18:39;36.32;31.26;44.60;;
76382;Laerm;65202;52.520;10.528;2023-04-12T01:21:13;37.14;31.89;47.22;;
76382;Laerm;65202;52.520;10.528;2023-04-12T01:24:02;38.72;32.38;45.32;;
76382;Laerm;65202;52.520;10.528;2023-04-12T01:26:43;36.35;31.50;45.95;;
76382;Laerm;65202;52.520;10.528;2023-04-12T01:29:15;37.82;31.99;45.98;;
76382;Laerm;65202;52.520;10.528;2023-04-12T01:32:03;36.69;31.55;46.64;;
76382;Laerm;65202;52.520;10.528;2023-04-12T01:34:33;36.78;31.47;45.61;;
76382;Laerm;65202;52.520;10.528;2023-04-12T01:37:02;36.25;31.49;47.08;;
76382;Laerm;65202;52.520;10.528;2023-04-12T01:39:32;37.38;31.42;45.11;;
76382;Laerm;65202;52.520;10.528;2023-04-12T01:41:59;35.86;30.88;46.12;;
76382;Laerm;65202;52.520;10.528;2023-04-12T01:44:27;36.66;31.81;46.63;;
76382;Laerm;65202;52.520;10.528;2023-04-12T01:46:54;36.53;31.79;50.17;;
76382;Laerm;65202;52.520;10.528;2023-04-12T01:49:25;37.96;32.23;46.83;;
76382;Laerm;65202;52.520;10.528;2023-04-12T01:52:11;37.56;32.25;56.69;;
76382;Laerm;65202;52.520;10.528;2023-04-12T01:54:42;36.25;31.71;45.54;;
76382;Laerm;65202;52.520;10.528;2023-04-12T01:57:12;36.69;31.83;47.43;;
76382;Laerm;65202;52.520;10.528;2023-04-12T01:59:44;38.14;31.97;47.04;;
76382;Laerm;65202;52.520;10.528;2023-04-12T02:02:12;37.59;32.01;44.90;;
76382;Laerm;65202;52.520;10.528;2023-04-12T02:04:41;36.11;31.55;46.67;;
76382;Laerm;65202;52.520;10.528;2023-04-12T02:07:08;37.63;31.92;45.53;;
76382;Laerm;65202;52.520;10.528;2023-04-12T02:09:37;37.03;31.88;46.40;;
76382;Laerm;65202;52.520;10.528;2023-04-12T02:12:06;38.23;32.06;45.51;;
76382;Laerm;65202;52.520;10.528;2023-04-12T02:14:33;39.72;32.30;50.00;;
76382;Laerm;65202;52.520;10.528;2023-04-12T02:17:00;39.69;34.31;46.54;;
76382;Laerm;65202;52.520;10.528;2023-04-12T02:19:28;37.79;32.77;45.35;;
76382;Laerm;65202;52.520;10.528;2023-04-12T02:21:56;38.30;32.04;50.45;;
76382;Laerm;65202;52.520;10.528;2023-04-12T02:24:23;37.51;32.33;46.03;;
76382;Laerm;65202;52.520;10.528;2023-04-12T02:26:50;36.94;31.45;45.62;;
76382;Laerm;65202;52.520;10.528;2023-04-12T02:29:17;37.95;31.93;46.13;;
76382;Laerm;65202;52.520;10.528;2023-04-12T02:31:44;38.49;32.52;45.89;;
76382;Laerm;65202;52.520;10.528;2023-04-12T02:34:12;39.31;33.79;47.20;;
76382;Laerm;65202;52.520;10.528;2023-04-12T02:36:46;47.23;33.96;62.88;;
76382;Laerm;65202;52.520;10.528;2023-04-12T02:39:13;38.56;32.80;50.30;;
76382;Laerm;65202;52.520;10.528;2023-04-12T02:41:40;39.38;34.10;48.10;;
76382;Laerm;65202;52.520;10.528;2023-04-12T02:44:07;38.47;32.07;59.05;;
76382;Laerm;65202;52.520;10.528;2023-04-12T02:46:34;40.14;33.20;47.73;;
76382;Laerm;65202;52.520;10.528;2023-04-12T02:49:02;47.34;33.52;66.29;;
76382;Laerm;65202;52.520;10.528;2023-04-12T02:51:29;39.48;33.23;45.96;;
76382;Laerm;65202;52.520;10.528;2023-04-12T02:53:57;38.27;33.08;46.02;;
76382;Laerm;65202;52.520;10.528;2023-04-12T02:56:24;38.10;33.33;47.30;;
76382;Laerm;65202;52.520;10.528;2023-04-12T02:58:51;38.60;34.02;46.77;;
76382;Laerm;65202;52.520;10.528;2023-04-12T03:01:19;38.99;34.71;47.15;;
76382;Laerm;65202;52.520;10.528;2023-04-12T03:03:46;40.01;35.81;46.13;;
76382;Laerm;65202;52.520;10.528;2023-04-12T03:06:13;39.82;36.08;46.49;;
76382;Laerm;65202;52.520;10.528;2023-04-12T03:08:40;39.56;35.18;47.93;;
76382;Laerm;65202;52.520;10.528;2023-04-12T03:11:08;40.34;35.94;47.24;;
76382;Laerm;65202;52.520;10.528;2023-04-12T03:13:35;40.48;36.12;46.30;;
76382;Laerm;65202;52.520;10.528;2023-04-12T03:16:24;41.61;37.09;60.60;;
76382;Laerm;65202;52.520;10.528;2023-04-12T03:18:51;43.26;36.38;55.46;;
76382;Laerm;65202;52.520;10.528;2023-04-12T03:21:19;41.10;36.57;45.72;;
76382;Laerm;65202;52.520;10.528;2023-04-12T03:23:46;41.84;37.56;48.38;;
76382;Laerm;65202;52.520;10.528;2023-04-12T03:26:13;45.22;37.45;58.12;;
76382;Laerm;65202;52.520;10.528;2023-04-12T03:28:41;47.37;36.68;60.36;;
76382;Laerm;65202;52.520;10.528;2023-04-12T03:31:08;48.22;38.08;61.14;;
76382;Laerm;65202;52.520;10.528;2023-04-12T03:33:37;45.09;37.33;58.32;;
76382;Laerm;65202;52.520;10.528;2023-04-12T03:36:05;46.91;39.41;60.21;;
76382;Laerm;65202;52.520;10.528;2023-04-12T03:38:33;49.26;40.31;63.04;;
76382;Laerm;65202;52.520;10.528;2023-04-12T03:41:00;45.30;39.50;54.12;;
76382;Laerm;65202;52.520;10.528;2023-04-12T03:43:27;49.75;39.46;67.69;;
76382;Laerm;65202;52.520;10.528;2023-04-12T03:45:59;44.62;39.02;55.02;;
76382;Laerm;65202;52.520;10.528;2023-04-12T03:48:26;49.06;39.75;62.20;;
76382;Laerm;65202;52.520;10.528;2023-04-12T03:50:54;49.74;39.62;61.62;;
76382;Laerm;65202;52.520;10.528;2023-04-12T03:53:21;52.44;40.39;64.11;;
76382;Laerm;65202;52.520;10.528;2023-04-12T03:55:48;51.94;39.42;65.31;;
76382;Laerm;65202;52.520;10.528;2023-04-12T03:58:15;51.55;39.29;65.44;;
76382;Laerm;65202;52.520;10.528;2023-04-12T04:00:45;50.25;40.01;64.18;;
76382;Laerm;65202;52.520;10.528;2023-04-12T04:03:15;52.91;41.03;66.70;;
76382;Laerm;65202;52.520;10.528;2023-04-12T04:05:43;49.07;39.68;67.53;;
76382;Laerm;65202;52.520;10.528;2023-04-12T04:08:10;50.39;39.26;67.65;;
76382;Laerm;65202;52.520;10.528;2023-04-12T04:10:38;50.02;40.19;58.63;;
76382;Laerm;65202;52.520;10.528;2023-04-12T04:13:05;49.95;40.80;59.27;;
76382;Laerm;65202;52.520;10.528;2023-04-12T04:15:32;50.52;41.29;60.93;;
76382;Laerm;65202;52.520;10.528;2023-04-12T04:17:59;50.41;41.00;62.38;;
76382;Laerm;65202;52.520;10.528;2023-04-12T04:20:27;51.04;41.73;63.86;;
76382;Laerm;65202;52.520;10.528;2023-04-12T04:22:54;49.06;40.44;63.75;;
76382;Laerm;65202;52.520;10.528;2023-04-12T04:25:21;47.30;40.10;60.13;;
76382;Laerm;65202;52.520;10.528;2023-04-12T04:27:55;48.20;40.15;63.19;;
76382;Laerm;65202;52.520;10.528;2023-04-12T04:30:25;50.70;41.23;65.90;;
76382;Laerm;65202;52.520;10.528;2023-04-12T04:32:52;54.19;42.28;68.83;;
76382;Laerm;65202;52.520;10.528;2023-04-12T04:35:19;48.77;41.07;61.67;;
76382;Laerm;65202;52.520;10.528;2023-04-12T04:37:47;48.46;40.89;63.76;;
76382;Laerm;65202;52.520;10.528;2023-04-12T04:40:15;48.53;42.08;63.65;;
76382;Laerm;65202;52.520;10.528;2023-04-12T04:42:42;50.51;41.67;66.30;;
76382;Laerm;65202;52.520;10.528;2023-04-12T04:45:12;48.68;42.19;61.37;;
76382;Laerm;65202;52.520;10.528;2023-04-12T04:47:40;47.12;41.84;60.52;;
76382;Laerm;65202;52.520;10.528;2023-04-12T04:50:07;51.64;41.97;63.71;;
76382;Laerm;65202;52.520;10.528;2023-04-12T04:52:34;50.26;41.72;64.04;;
76382;Laerm;65202;52.520;10.528;2023-04-12T04:55:04;46.64;40.89;61.42;;
76382;Laerm;65202;52.520;10.528;2023-04-12T04:57:34;49.94;41.24;66.42;;
76382;Laerm;65202;52.520;10.528;2023-04-12T05:00:02;47.28;42.03;56.93;;
76382;Laerm;65202;52.520;10.528;2023-04-12T05:02:37;46.14;40.80;60.98;;
76382;Laerm;65202;52.520;10.528;2023-04-12T05:05:07;45.50;41.54;63.20;;
76382;Laerm;65202;52.520;10.528;2023-04-12T05:07:34;46.34;40.40;57.16;;
76382;Laerm;65202;52.520;10.528;2023-04-12T05:10:03;47.93;40.74;56.56;;
76382;Laerm;65202;52.520;10.528;2023-04-12T05:12:31;49.35;42.25;60.65;;
76382;Laerm;65202;52.520;10.528;2023-04-12T05:14:58;49.10;40.98;62.15;;
76382;Laerm;65202;52.520;10.528;2023-04-12T05:17:37;49.92;41.45;66.07;;
76382;Laerm;65202;52.520;10.528;2023-04-12T05:20:06;50.05;42.53;68.65;;
76382;Laerm;65202;52.520;10.528;2023-04-12T05:22:34;48.20;42.95;58.81;;
76382;Laerm;65202;52.520;10.528;2023-04-12T05:25:01;50.38;43.46;62.80;;
76382;Laerm;65202;52.520;10.528;2023-04-12T05:27:29;50.08;43.03;64.12;;
76382;Laerm;65202;52.520;10.528;2023-04-12T05:29:57;50.09;43.81;63.87;;
76382;Laerm;65202;52.520;10.528;2023-04-12T05:32:24;48.32;41.61;60.84;;
76382;Laerm;65202;52.520;10.528;2023-04-12T05:34:52;49.24;42.98;60.44;;
76382;Laerm;65202;52.520;10.528;2023-04-12T05:37:19;49.97;42.35;64.32;;
76382;Laerm;65202;52.520;10.528;2023-04-12T05:39:46;47.14;42.96;56.42;;
76382;Laerm;65202;52.520;10.528;2023-04-12T05:42:13;49.89;42.78;63.08;;
76382;Laerm;65202;52.520;10.528;2023-04-12T05:44:41;47.83;42.81;64.86;;
76382;Laerm;65202;52.520;10.528;2023-04-12T05:47:10;50.86;42.22;64.14;;
76382;Laerm;65202;52.520;10.528;2023-04-12T05:49:38;47.36;42.36;58.04;;
76382;Laerm;65202;52.520;10.528;2023-04-12T05:52:05;47.59;41.78;61.02;;
76382;Laerm;65202;52.520;10.528;2023-04-12T05:54:33;48.91;42.11;61.83;;
76382;Laerm;65202;52.520;10.528;2023-04-12T05:57:01;46.97;41.16;56.80;;
76382;Laerm;65202;52.520;10.528;2023-04-12T05:59:28;51.65;42.30;63.75;;
76382;Laerm;65202;52.520;10.528;2023-04-12T06:01:56;48.18;41.38;59.27;;
76382;Laerm;65202;52.520;10.528;2023-04-12T06:04:24;49.40;41.56;59.75;;
76382;Laerm;65202;52.520;10.528;2023-04-12T06:07:12;52.87;42.07;65.80;;
76382;Laerm;65202;52.520;10.528;2023-04-12T06:09:39;53.40;43.15;66.16;;
76382;Laerm;65202;52.520;10.528;2023-04-12T06:12:08;51.38;42.33;60.98;;
76382;Laerm;65202;52.520;10.528;2023-04-12T06:14:35;52.91;43.68;62.91;;
76382;Laerm;65202;52.520;10.528;2023-04-12T06:17:02;52.85;42.76;66.07;;
76382;Laerm;65202;52.520;10.528;2023-04-12T06:19:30;52.96;41.82;62.93;;
76382;Laerm;65202;52.520;10.528;2023-04-12T06:21:57;52.48;41.95;69.80;;
76382;Laerm;65202;52.520;10.528;2023-04-12T06:24:24;50.73;41.83;63.07;;
76382;Laerm;65202;52.520;10.528;2023-04-12T06:26:52;51.77;41.49;67.65;;
76382;Laerm;65202;52.520;10.528;2023-04-12T06:29:19;48.99;41.40;63.03;;
76382;Laerm;65202;52.520;10.528;2023-04-12T06:31:46;47.02;39.93;58.93;;
76382;Laerm;65202;52.520;10.528;2023-04-12T06:34:14;50.76;39.87;66.45;;
76382;Laerm;65202;52.520;10.528;2023-04-12T06:36:41;49.07;41.19;64.24;;
76382;Laerm;65202;52.520;10.528;2023-04-12T06:39:09;53.12;41.90;66.51;;
76382;Laerm;65202;52.520;10.528;2023-04-12T06:41:38;51.90;41.61;72.97;;
76382;Laerm;65202;52.520;10.528;2023-04-12T06:44:05;50.51;41.81;61.89;;
76382;Laerm;65202;52.520;10.528;2023-04-12T06:46:32;48.74;41.56;61.08;;
76382;Laerm;65202;52.520;10.528;2023-04-12T06:49:00;53.63;40.52;69.50;;
76382;Laerm;65202;52.520;10.528;2023-04-12T06:51:27;51.49;41.24;62.96;;
76382;Laerm;65202;52.520;10.528;2023-04-12T06:53:54;50.85;39.21;67.16;;
76382;Laerm;65202;52.520;10.528;2023-04-12T06:56:23;47.46;38.97;62.19;;
76382;Laerm;65202;52.520;10.528;2023-04-12T06:58:50;47.87;38.87;60.62;;
76382;Laerm;65202;52.520;10.528;2023-04-12T07:01:17;46.47;39.79;56.37;;
76382;Laerm;65202;52.520;10.528;2023-04-12T07:03:45;50.24;41.00;62.19;;
76382;Laerm;65202;52.520;10.528;2023-04-12T07:06:12;47.44;39.61;60.70;;
76382;Laerm;65202;52.520;10.528;2023-04-12T07:08:51;46.27;40.39;62.78;;
76382;Laerm;65202;52.520;10.528;2023-04-12T07:11:22;47.08;40.58;67.08;;
76382;Laerm;65202;52.520;10.528;2023-04-12T07:13:50;49.66;40.03;62.83;;
76382;Laerm;65202;52.520;10.528;2023-04-12T07:16:18;51.26;39.39;67.15;;
76382;Laerm;65202;52.520;10.528;2023-04-12T07:18:46;47.00;39.08;57.40;;
76382;Laerm;65202;52.520;10.528;2023-04-12T07:21:13;49.06;39.03;63.90;;
76382;Laerm;65202;52.520;10.528;2023-04-12T07:23:43;50.29;38.25;64.10;;
76382;Laerm;65202;52.520;10.528;2023-04-12T07:26:10;45.24;38.98;61.55;;
76382;Laerm;65202;52.520;10.528;2023-04-12T07:28:38;50.97;38.29;70.18;;
76382;Laerm;65202;52.520;10.528;2023-04-12T07:31:06;47.19;37.66;61.35;;
76382;Laerm;65202;52.520;10.528;2023-04-12T07:33:33;46.66;38.32;57.69;;
76382;Laerm;65202;52.520;10.528;2023-04-12T07:36:03;48.03;38.21;63.01;;
76382;Laerm;65202;52.520;10.528;2023-04-12T07:38:30;48.72;38.88;63.16;;
76382;Laerm;65202;52.520;10.528;2023-04-12T07:40:58;48.29;38.05;61.11;;
76382;Laerm;65202;52.520;10.528;2023-04-12T07:43:25;49.05;38.93;63.03;;
76382;Laerm;65202;52.520;10.528;2023-04-12T07:45:55;47.54;38.99;61.02;;
76382;Laerm;65202;52.520;10.528;2023-04-12T07:48:23;48.01;37.12;61.42;;
76382;Laerm;65202;52.520;10.528;2023-04-12T07:50:50;46.58;37.61;58.30;;
76382;Laerm;65202;52.520;10.528;2023-04-12T07:53:20;47.30;37.41;62.43;;
76382;Laerm;65202;52.520;10.528;2023-04-12T07:55:49;46.63;37.96;59.62;;
76382;Laerm;65202;52.520;10.528;2023-04-12T07:58:18;46.95;38.03;61.64;;
76382;Laerm;65202;52.520;10.528;2023-04-12T08:00:46;46.29;39.02;57.47;;
76382;Laerm;65202;52.520;10.528;2023-04-12T08:03:15;46.55;39.22;61.20;;
76382;Laerm;65202;52.520;10.528;2023-04-12T08:05:44;47.71;39.71;57.64;;
76382;Laerm;65202;52.520;10.528;2023-04-12T08:08:11;50.84;40.66;67.93;;
76382;Laerm;65202;52.520;10.528;2023-04-12T08:10:39;50.35;40.54;66.90;;
76382;Laerm;65202;52.520;10.528;2023-04-12T08:13:07;50.92;39.13;64.51;;
76382;Laerm;65202;52.520;10.528;2023-04-12T08:15:34;48.31;37.50;62.67;;
76382;Laerm;65202;52.520;10.528;2023-04-12T08:18:02;49.27;38.59;62.97;;
76382;Laerm;65202;52.520;10.528;2023-04-12T08:20:30;47.04;38.60;57.69;;
76382;Laerm;65202;52.520;10.528;2023-04-12T08:22:57;46.99;37.99;56.31;;
76382;Laerm;65202;52.520;10.528;2023-04-12T08:25:25;48.06;42.14;63.71;;
76382;Laerm;65202;52.520;10.528;2023-04-12T08:27:53;47.77;42.20;56.42;;
76382;Laerm;65202;52.520;10.528;2023-04-12T08:30:21;47.24;36.83;63.41;;
76382;Laerm;65202;52.520;10.528;2023-04-12T08:32:52;46.96;38.31;62.01;;
76382;Laerm;65202;52.520;10.528;2023-04-12T08:35:20;48.23;39.30;62.33;;
76382;Laerm;65202;52.520;10.528;2023-04-12T08:37:48;47.30;38.98;57.97;;
76382;Laerm;65202;52.520;10.528;2023-04-12T08:40:16;47.83;39.09;59.23;;
76382;Laerm;65202;52.520;10.528;2023-04-12T08:42:43;51.52;39.32;66.94;;
76382;Laerm;65202;52.520;10.528;2023-04-12T08:45:11;49.00;39.73;61.75;;
76382;Laerm;65202;52.520;10.528;2023-04-12T08:47:41;45.72;38.03;58.15;;
76382;Laerm;65202;52.520;10.528;2023-04-12T08:50:11;49.36;39.11;63.89;;
76382;Laerm;65202;52.520;10.528;2023-04-12T08:52:41;49.67;39.48;59.38;;
76382;Laerm;65202;52.520;10.528;2023-04-12T08:55:09;49.52;39.48;62.78;;
76382;Laerm;65202;52.520;10.528;2023-04-12T08:57:40;47.58;38.50;57.37;;
76382;Laerm;65202;52.520;10.528;2023-04-12T09:00:09;49.13;40.10;61.85;;
76382;Laerm;65202;52.520;10.528;2023-04-12T09:02:37;48.28;39.56;57.95;;
76382;Laerm;65202;52.520;10.528;2023-04-12T09:05:06;48.12;39.82;58.69;;
76382;Laerm;65202;52.520;10.528;2023-04-12T09:07:33;47.25;40.23;59.02;;
76382;Laerm;65202;52.520;10.528;2023-04-12T09:10:01;48.34;40.43;62.61;;
76382;Laerm;65202;52.520;10.528;2023-04-12T09:12:28;48.38;40.55;61.43;;
76382;Laerm;65202;52.520;10.528;2023-04-12T09:15:21;48.24;40.83;58.17;;
76382;Laerm;65202;52.520;10.528;2023-04-12T09:18:02;48.69;41.62;66.28;;
76382;Laerm;65202;52.520;10.528;2023-04-12T09:20:29;52.07;40.70;80.24;;
76382;Laerm;65202;52.520;10.528;2023-04-12T09:22:57;51.83;40.03;65.45;;
76382;Laerm;65202;52.520;10.528;2023-04-12T09:25:36;47.36;40.21;62.75;;
76382;Laerm;65202;52.520;10.528;2023-04-12T09:28:21;47.76;39.85;61.64;;
76382;Laerm;65202;52.520;10.528;2023-04-12T09:30:49;53.65;43.22;70.51;;
76382;Laerm;65202;52.520;10.528;2023-04-12T09:33:23;49.65;41.73;60.35;;
76382;Laerm;65202;52.520;10.528;2023-04-12T09:36:03;50.96;40.29;70.04;;
76382;Laerm;65202;52.520;10.528;2023-04-12T09:38:32;48.67;40.81;61.98;;
76382;Laerm;65202;52.520;10.528;2023-04-12T09:41:20;49.56;40.63;65.11;;
76382;Laerm;65202;52.520;10.528;2023-04-12T09:43:53;47.33;38.90;58.81;;
76382;Laerm;65202;52.520;10.528;2023-04-12T09:46:20;47.77;41.50;56.66;;
76382;Laerm;65202;52.520;10.528;2023-04-12T09:48:52;48.42;41.46;56.55;;
76382;Laerm;65202;52.520;10.528;2023-04-12T09:51:32;47.77;38.95;63.25;;
76382;Laerm;65202;52.520;10.528;2023-04-12T09:54:04;48.62;40.84;58.45;;
76382;Laerm;65202;52.520;10.528;2023-04-12T09:56:34;49.31;40.45;65.51;;
76382;Laerm;65202;52.520;10.528;2023-04-12T09:59:05;48.27;40.68;62.64;;
76382;Laerm;65202;52.520;10.528;2023-04-12T10:01:40;51.74;39.84;69.09;;
76382;Laerm;65202;52.520;10.528;2023-04-12T10:04:08;53.12;41.70;70.30;;
76382;Laerm;65202;52.520;10.528;2023-04-12T10:06:36;51.88;42.21;67.08;;
76382;Laerm;65202;52.520;10.528;2023-04-12T10:09:04;52.67;42.25;67.89;;
76382;Laerm;65202;52.520;10.528;2023-04-12T10:11:33;54.79;42.84;68.19;;
76382;Laerm;65202;52.520;10.528;2023-04-12T10:14:04;51.36;43.61;64.90;;
76382;Laerm;65202;52.520;10.528;2023-04-12T10:16:33;53.16;46.57;60.37;;
76382;Laerm;65202;52.520;10.528;2023-04-12T10:19:02;52.38;46.10;65.13;;
76382;Laerm;65202;52.520;10.528;2023-04-12T10:21:30;54.31;46.57;79.28;;
76382;Laerm;65202;52.520;10.528;2023-04-12T10:23:58;52.78;46.16;68.49;;
76382;Laerm;65202;52.520;10.528;2023-04-12T10:26:26;50.51;44.22;59.17;;
76382;Laerm;65202;52.520;10.528;2023-04-12T10:29:22;51.85;44.87;70.52;;
76382;Laerm;65202;52.520;10.528;2023-04-12T10:31:53;53.99;44.78;69.95;;
76382;Laerm;65202;52.520;10.528;2023-04-12T10:34:29;52.48;44.19;70.35;;
76382;Laerm;65202;52.520;10.528;2023-04-12T10:37:00;52.95;45.10;67.95;;
76382;Laerm;65202;52.520;10.528;2023-04-12T10:39:43;50.82;44.32;65.72;;
76382;Laerm;65202;52.520;10.528;2023-04-12T10:42:28;52.95;44.31;70.72;;
76382;Laerm;65202;52.520;10.528;2023-04-12T10:50:22;52.60;44.74;69.74;;
76382;Laerm;65202;52.520;10.528;2023-04-12T10:55:39;50.86;44.65;69.19;;
76382;Laerm;65202;52.520;10.528;2023-04-12T10:58:07;50.53;43.44;67.50;;
76382;Laerm;65202;52.520;10.528;2023-04-12T11:03:27;51.27;44.67;67.67;;
76382;Laerm;65202;52.520;10.528;2023-04-12T11:06:04;52.07;42.80;68.86;;
76382;Laerm;65202;52.520;10.528;2023-04-12T11:08:53;50.65;41.26;67.19;;
76382;Laerm;65202;52.520;10.528;2023-04-12T11:11:21;51.42;42.80;65.48;;
76382;Laerm;65202;52.520;10.528;2023-04-12T11:13:54;54.41;44.27;69.33;;
76382;Laerm;65202;52.520;10.528;2023-04-12T11:16:22;54.33;44.09;69.77;;
76382;Laerm;65202;52.520;10.528;2023-04-12T11:18:50;52.96;44.70;68.91;;
76382;Laerm;65202;52.520;10.528;2023-04-12T11:21:19;54.82;44.59;71.03;;
76382;Laerm;65202;52.520;10.528;2023-04-12T11:23:47;53.16;45.42;68.92;;
76382;Laerm;65202;52.520;10.528;2023-04-12T11:26:19;53.01;44.55;68.75;;
76382;Laerm;65202;52.520;10.528;2023-04-12T11:28:47;52.87;44.24;68.99;;
76382;Laerm;65202;52.520;10.528;2023-04-12T11:31:19;51.81;44.02;69.47;;
76382;Laerm;65202;52.520;10.528;2023-04-12T11:33:47;51.99;43.57;67.65;;
76382;Laerm;65202;52.520;10.528;2023-04-12T11:36:14;50.60;42.10;68.41;;
76382;Laerm;65202;52.520;10.528;2023-04-12T11:38:42;53.06;42.51;68.76;;
76382;Laerm;65202;52.520;10.528;2023-04-12T11:41:13;51.60;42.95;70.18;;
76382;Laerm;65202;52.520;10.528;2023-04-12T11:43:40;52.10;43.78;65.79;;
76382;Laerm;65202;52.520;10.528;2023-04-12T11:46:08;55.86;44.02;73.27;;
76382;Laerm;65202;52.520;10.528;2023-04-12T11:48:36;51.14;44.09;67.92;;
76382;Laerm;65202;52.520;10.528;2023-04-12T11:51:19;51.41;43.50;69.39;;
76382;Laerm;65202;52.520;10.528;2023-04-12T11:53:52;53.47;45.13;68.81;;
76382;Laerm;65202;52.520;10.528;2023-04-12T11:56:20;55.46;44.69;69.57;;
76382;Laerm;65202;52.520;10.528;2023-04-12T11:58:48;53.95;44.13;70.17;;
76382;Laerm;65202;52.520;10.528;2023-04-12T12:01:18;50.79;43.50;68.84;;
76382;Laerm;65202;52.520;10.528;2023-04-12T12:03:47;52.20;43.31;67.37;;
76382;Laerm;65202;52.520;10.528;2023-04-12T12:06:15;53.96;43.34;70.56;;
76382;Laerm;65202;52.520;10.528;2023-04-12T12:08:44;52.75;42.96;67.92;;
76382;Laerm;65202;52.520;10.528;2023-04-12T12:11:12;53.26;43.41;67.07;;
76382;Laerm;65202;52.520;10.528;2023-04-12T12:13:53;56.74;46.44;69.79;;
76382;Laerm;65202;52.520;10.528;2023-04-12T12:16:26;53.35;46.00;67.20;;
76382;Laerm;65202;52.520;10.528;2023-04-12T12:18:55;54.78;43.88;67.77;;
76382;Laerm;65202;52.520;10.528;2023-04-12T12:21:24;55.87;42.76;72.06;;
76382;Laerm;65202;52.520;10.528;2023-04-12T12:23:53;54.88;43.07;69.49;;
76382;Laerm;65202;52.520;10.528;2023-04-12T12:26:25;52.50;41.78;68.90;;
76382;Laerm;65202;52.520;10.528;2023-04-12T12:28:55;53.42;43.06;69.33;;
76382;Laerm;65202;52.520;10.528;2023-04-12T12:31:25;51.93;44.63;68.08;;
76382;Laerm;65202;52.520;10.528;2023-04-12T12:33:58;49.29;41.69;69.20;;
76382;Laerm;65202;52.520;10.528;2023-04-12T12:36:35;49.20;42.45;66.96;;
76382;Laerm;65202;52.520;10.528;2023-04-12T12:39:10;51.09;43.55;68.97;;
76382;Laerm;65202;52.520;10.528;2023-04-12T12:41:39;52.93;42.48;68.81;;
76382;Laerm;65202;52.520;10.528;2023-04-12T12:44:07;51.85;43.19;68.73;;
76382;Laerm;65202;52.520;10.528;2023-04-12T12:46:34;50.69;42.13;69.14;;
76382;Laerm;65202;52.520;10.528;2023-04-12T12:49:04;51.08;42.59;65.92;;
76382;Laerm;65202;52.520;10.528;2023-04-12T12:51:32;52.29;43.05;69.44;;
76382;Laerm;65202;52.520;10.528;2023-04-12T12:53:59;50.23;42.61;66.65;;
76382;Laerm;65202;52.520;10.528;2023-04-12T12:56:27;52.61;41.82;69.76;;
76382;Laerm;65202;52.520;10.528;2023-04-12T12:58:54;48.59;42.66;66.96;;
76382;Laerm;65202;52.520;10.528;2023-04-12T13:01:22;50.72;41.87;68.20;;
76382;Laerm;65202;52.520;10.528;2023-04-12T13:03:49;49.96;41.48;69.72;;
76382;Laerm;65202;52.520;10.528;2023-04-12T13:06:16;51.03;41.69;70.73;;
76382;Laerm;65202;52.520;10.528;2023-04-12T13:08:44;51.44;43.39;69.31;;
76382;Laerm;65202;52.520;10.528;2023-04-12T13:11:12;52.87;42.71;68.33;;
76382;Laerm;65202;52.520;10.528;2023-04-12T13:13:41;55.75;43.60;70.93;;
76382;Laerm;65202;52.520;10.528;2023-04-12T13:16:09;50.51;44.08;67.35;;
76382;Laerm;65202;52.520;10.528;2023-04-12T13:18:36;50.19;43.95;68.75;;
76382;Laerm;65202;52.520;10.528;2023-04-12T13:21:04;53.27;43.13;68.43;;
76382;Laerm;65202;52.520;10.528;2023-04-12T13:23:32;51.30;41.49;67.24;;
76382;Laerm;65202;52.520;10.528;2023-04-12T13:25:59;53.43;44.15;65.95;;
76382;Laerm;65202;52.520;10.528;2023-04-12T13:28:26;50.32;41.75;64.59;;
76382;Laerm;65202;52.520;10.528;2023-04-12T13:30:54;51.36;40.54;64.25;;
76382;Laerm;65202;52.520;10.528;2023-04-12T13:33:21;47.93;40.37;65.64;;
76382;Laerm;65202;52.520;10.528;2023-04-12T13:35:48;51.49;40.88;66.40;;
76382;Laerm;65202;52.520;10.528;2023-04-12T13:38:15;50.87;40.92;68.97;;
76382;Laerm;65202;52.520;10.528;2023-04-12T13:40:43;46.76;41.08;62.59;;
76382;Laerm;65202;52.520;10.528;2023-04-12T13:43:10;49.04;41.27;62.27;;
76382;Laerm;65202;52.520;10.528;2023-04-12T13:45:37;48.74;41.03;69.40;;
76382;Laerm;65202;52.520;10.528;2023-04-12T13:48:05;46.51;39.47;68.89;;
76382;Laerm;65202;52.520;10.528;2023-04-12T13:50:32;47.13;40.34;64.76;;
76382;Laerm;65202;52.520;10.528;2023-04-12T13:52:59;49.75;40.62;65.87;;
76382;Laerm;65202;52.520;10.528;2023-04-12T13:55:27;52.72;42.28;66.76;;
76382;Laerm;65202;52.520;10.528;2023-04-12T13:57:54;51.19;41.72;65.12;;
76382;Laerm;65202;52.520;10.528;2023-04-12T14:00:22;51.18;41.59;68.14;;